Time;durP1;ratioP1;P1;durP2;ratioP2;P2;SDS_P1;SDS_P2;PMS_P1;PMS_P2;Temp;Humidity;BMP_temperature;BMP_pressure;BME280_temperature;BME280_humidity;BME280_pressure;Samples;Min_cycle;Max_cycle;Signal;HPM_P1;HPM_P2
2021/12/08 00:01:43;;;;;;;90.72;41.63;;;;;;;0.11;89.89;99259.97;10507441;28;20044;-70
2021/12/08 00:06:45;;;;;;;85.57;39.60;;;;;;;0.08;89.26;99245.34;10503492;28;20398;-71
2021/12/08 00:17:07;;;;;;;86.80;40.55;;;;;;;-0.33;89.97;99230.75;10502395;28;20044;-70
2021/12/08 00:22:12;;;;;;;92.07;41.00;;;;;;;-0.22;90.24;99216.97;10510740;28;20083;-70
2021/12/08 00:27:13;;;;;;;89.93;40.00;;;;;;;-0.35;90.73;99214.44;10503164;28;20060;-71
2021/12/08 00:32:15;;;;;;;87.18;39.45;;;;;;;-0.37;91.28;99205.81;10499787;28;20113;-72
2021/12/08 00:37:17;;;;;;;89.30;40.42;;;;;;;-0.52;91.32;99193.78;10500456;28;20066;-70
2021/12/08 00:42:19;;;;;;;85.97;39.83;;;;;;;-0.71;91.68;99179.16;10500352;28;20079;-71
2021/12/08 00:47:21;;;;;;;83.15;38.03;;;;;;;-0.48;90.68;99183.47;10499946;28;20098;-71
2021/12/08 00:52:28;;;;;;;88.40;39.50;;;;;;;-0.68;91.06;99184.31;10500669;28;20405;-71
2021/12/08 00:57:29;;;;;;;93.85;41.65;;;;;;;-0.74;91.38;99188.63;10500927;28;20071;-70
2021/12/08 01:02:31;;;;;;;103.82;45.67;;;;;;;-0.76;93.10;99188.59;10502628;28;20052;-72
2021/12/08 01:07:33;;;;;;;103.05;46.53;;;;;;;-0.54;93.16;99180.00;10504365;28;20040;-71
2021/12/08 01:12:34;;;;;;;107.57;47.60;;;;;;;-0.58;93.29;99173.13;10500447;28;20044;-70
2021/12/08 01:17:38;;;;;;;117.65;49.83;;;;;;;-0.39;93.43;99175.69;10500992;28;20051;-71
2021/12/08 01:22:41;;;;;;;103.60;48.55;;;;;;;-0.12;92.36;99159.28;10499704;28;20045;-71
2021/12/08 01:27:42;;;;;;;107.97;49.42;;;;;;;-0.09;91.80;99148.91;10500333;28;20123;-71
2021/12/08 01:32:44;;;;;;;109.97;47.13;;;;;;;0.19;91.10;99140.22;10499893;28;20048;-71
2021/12/08 01:37:46;;;;;;;102.20;47.65;;;;;;;0.17;90.41;99120.41;10499652;28;20406;-72
2021/12/08 01:42:52;;;;;;;98.32;45.75;;;;;;;0.30;89.37;99105.69;10499731;28;20036;-71
2021/12/08 01:47:54;;;;;;;94.03;42.88;;;;;;;0.41;88.79;99096.19;10499146;28;20051;-70
2021/12/08 01:52:56;;;;;;;83.78;42.33;;;;;;;0.27;88.50;99101.41;10495354;28;20102;-72
2021/12/08 01:57:57;;;;;;;86.55;41.85;;;;;;;0.45;87.40;99084.94;10496731;28;20443;-71
2021/12/08 02:02:59;;;;;;;82.30;40.95;;;;;;;0.19;88.86;99069.59;10497688;28;20048;-71
2021/12/08 02:08:02;;;;;;;84.80;42.47;;;;;;;0.29;87.81;99052.28;10506092;28;20097;-71
2021/12/08 02:13:05;;;;;;;80.72;40.60;;;;;;;0.31;88.84;99033.34;10506449;28;20052;-70
2021/12/08 02:18:11;;;;;;;80.47;41.08;;;;;;;0.27;88.09;99028.16;10506710;28;20037;-71
2021/12/08 02:23:14;;;;;;;80.97;41.95;;;;;;;0.12;89.33;99006.72;10506656;28;20064;-71
2021/12/08 02:28:16;;;;;;;86.28;42.78;;;;;;;0.31;88.62;98997.16;10505016;28;20060;-71
2021/12/08 02:49:21;;;;;;;73.13;38.83;;;;;;;0.22;87.44;98976.50;10504566;28;20074;-71
2021/12/08 02:54:23;;;;;;;73.50;40.45;;;;;;;0.02;88.33;98980.97;10503935;28;20052;-71
2021/12/08 02:59:25;;;;;;;74.72;38.28;;;;;;;0.01;88.41;98980.13;10502354;28;20044;-70
2021/12/08 03:04:27;;;;;;;72.80;39.45;;;;;;;-0.10;88.82;98972.41;10503400;28;20049;-71
2021/12/08 03:09:29;;;;;;;65.28;36.70;;;;;;;0.10;88.60;98961.13;10501605;28;20044;-70
2021/12/08 03:14:31;;;;;;;66.72;38.08;;;;;;;0.23;88.24;98950.66;10484854;28;20102;-71
2021/12/08 03:19:33;;;;;;;65.60;37.53;;;;;;;0.06;88.51;98951.66;10502988;28;20048;-71
2021/12/08 03:24:38;;;;;;;66.28;37.40;;;;;;;0.17;88.24;98939.50;10501391;28;20520;-72
2021/12/08 03:34:51;;;;;;;61.13;37.22;;;;;;;0.22;89.36;98933.47;10502692;28;20049;-70
2021/12/08 03:39:55;;;;;;;60.85;35.42;;;;;;;0.11;88.81;98929.22;10503170;28;20044;-71
2021/12/08 03:45:01;;;;;;;59.42;34.97;;;;;;;0.10;89.28;98912.88;10502252;28;20048;-71
2021/12/08 03:50:05;;;;;;;60.72;33.28;;;;;;;0.50;88.16;98891.84;10501654;28;20044;-71
2021/12/08 03:55:10;;;;;;;50.78;32.50;;;;;;;0.51;86.66;98893.56;10501175;28;20414;-71
2021/12/08 04:00:17;;;;;;;48.63;31.13;;;;;;;0.62;86.46;98904.66;10502175;28;20067;-71
2021/12/08 04:05:22;;;;;;;47.30;30.88;;;;;;;0.40;86.07;98903.13;10500655;28;20045;-71
2021/12/08 04:10:23;;;;;;;38.13;28.63;;;;;;;0.57;85.97;98901.25;10499916;28;20055;-71
2021/12/08 04:15:26;;;;;;;38.03;29.27;;;;;;;0.65;85.21;98908.94;10498833;28;20371;-71
2021/12/08 04:20:44;;;;;;;36.38;28.08;;;;;;;0.73;84.75;98899.38;10500503;28;20044;-71
2021/12/08 04:25:49;;;;;;;40.58;28.85;;;;;;;0.49;85.68;98897.91;10498905;28;20365;-71
2021/12/08 04:30:59;;;;;;;36.88;27.48;;;;;;;0.89;84.28;98898.34;10500341;28;20043;-70
2021/12/08 04:36:03;;;;;;;34.75;25.83;;;;;;;0.77;84.38;98900.22;10499548;28;20045;-71
2021/12/08 04:41:11;;;;;;;34.70;26.52;;;;;;;0.60;85.20;98903.81;10499801;28;20052;-71
2021/12/08 04:51:58;;;;;;;29.45;26.40;;;;;;;0.52;84.62;98890.09;10498161;28;20051;-71
2021/12/08 05:02:45;;;;;;;30.02;24.55;;;;;;;0.76;82.79;98886.41;10494360;28;20409;-73
2021/12/08 05:08:01;;;;;;;27.30;24.02;;;;;;;0.58;84.10;98895.22;10476350;28;20044;-72
2021/12/08 05:13:05;;;;;;;25.80;23.15;;;;;;;0.65;83.94;98896.84;10496758;28;20105;-70
2021/12/08 05:18:15;;;;;;;24.58;21.10;;;;;;;0.81;82.81;98897.56;10498921;28;20040;-70
2021/12/08 05:23:31;;;;;;;28.05;21.27;;;;;;;0.91;81.84;98900.91;10498699;28;20048;-71
2021/12/08 05:28:34;;;;;;;24.27;21.88;;;;;;;0.81;82.38;98907.06;10498490;28;20041;-71
2021/12/08 05:33:37;;;;;;;24.55;21.92;;;;;;;0.62;83.15;98908.97;10498531;28;20415;-70
2021/12/08 05:38:40;;;;;;;29.73;24.35;;;;;;;0.68;83.15;98922.69;10502777;28;20045;-70
2021/12/08 05:43:44;;;;;;;24.65;22.10;;;;;;;0.61;82.72;98926.19;10506923;28;20044;-71
2021/12/08 05:48:48;;;;;;;30.00;24.05;;;;;;;0.49;82.89;98941.84;10506204;28;20051;-70
2021/12/08 05:53:53;;;;;;;26.38;22.75;;;;;;;0.44;83.26;98923.81;10504982;28;20143;-70
2021/12/08 05:58:58;;;;;;;24.90;22.35;;;;;;;0.49;83.22;98928.94;10506225;28;20086;-70
2021/12/08 06:04:00;;;;;;;27.63;22.90;;;;;;;0.39;83.05;98925.53;10504775;28;20056;-69
2021/12/08 06:09:05;;;;;;;24.90;21.05;;;;;;;0.43;82.25;98931.53;10505381;28;20431;-70
2021/12/08 06:14:07;;;;;;;25.83;22.38;;;;;;;0.38;81.73;98929.00;10505919;28;20048;-69
2021/12/08 06:19:11;;;;;;;31.92;23.25;;;;;;;0.47;81.43;98920.31;10505134;28;20116;-70
2021/12/08 06:24:15;;;;;;;32.78;22.95;;;;;;;0.30;81.75;98923.03;10504502;28;20049;-70
2021/12/08 06:29:18;;;;;;;24.58;21.70;;;;;;;0.25;81.58;98914.47;10504509;28;20048;-71
2021/12/08 06:34:22;;;;;;;26.67;22.27;;;;;;;0.20;81.75;98908.47;10502957;28;20456;-71
2021/12/08 06:39:33;;;;;;;27.48;21.45;;;;;;;0.34;80.93;98909.22;10504291;28;20048;-71
2021/12/08 06:44:40;;;;;;;30.33;23.23;;;;;;;0.35;80.87;98908.34;10504955;28;20060;-70
2021/12/08 06:49:42;;;;;;;37.10;23.65;;;;;;;0.24;81.34;98912.75;10503059;28;20040;-71
2021/12/08 06:54:53;;;;;;;30.42;23.30;;;;;;;0.32;81.23;98902.38;10503871;28;20048;-71
2021/12/08 07:00:11;;;;;;;30.17;22.88;;;;;;;0.16;80.78;98909.38;10504125;28;20163;-69
2021/12/08 07:05:35;;;;;;;29.63;23.73;;;;;;;0.35;80.57;98925.56;10503927;28;20506;-69
2021/12/08 07:10:45;;;;;;;31.48;23.92;;;;;;;0.30;80.91;98932.53;10503864;28;20045;-71
2021/12/08 07:15:50;;;;;;;26.98;23.05;;;;;;;0.24;80.75;98912.75;10504050;28;20469;-70
2021/12/08 07:20:57;;;;;;;30.98;23.52;;;;;;;0.34;80.31;98916.13;10503033;28;20105;-71
2021/12/08 07:25:59;;;;;;;34.30;24.88;;;;;;;0.29;80.54;98916.16;10502650;28;20044;-70
2021/12/08 07:31:06;;;;;;;26.67;22.95;;;;;;;0.36;79.94;98906.63;10502797;28;20123;-70
2021/12/08 07:36:15;;;;;;;31.73;23.50;;;;;;;0.43;79.36;98908.28;10501642;28;20060;-70
2021/12/08 07:41:24;;;;;;;28.80;22.85;;;;;;;0.55;78.79;98899.56;10503190;28;20097;-69
2021/12/08 07:46:36;;;;;;;24.20;21.60;;;;;;;0.63;77.41;98903.78;10502123;28;20052;-70
2021/12/08 07:51:50;;;;;;;26.13;21.70;;;;;;;0.58;77.93;98895.22;10502526;28;20413;-70
2021/12/08 07:56:56;;;;;;;26.73;21.52;;;;;;;0.79;77.03;98891.53;10502460;28;20044;-70
2021/12/08 08:02:07;;;;;;;23.27;20.85;;;;;;;0.91;76.53;98870.72;10502230;28;20045;-71
2021/12/08 08:07:10;;;;;;;22.00;19.80;;;;;;;0.88;76.20;98877.66;10502761;28;20048;-70
2021/12/08 08:12:18;;;;;;;21.73;19.52;;;;;;;0.88;76.10;98881.09;10501659;28;20383;-71
2021/12/08 08:17:29;;;;;;;20.42;18.25;;;;;;;0.93;76.28;98876.75;10502496;28;20098;-71
2021/12/08 08:22:32;;;;;;;20.75;18.67;;;;;;;1.08;75.25;98880.88;10501920;28;20105;-70
2021/12/08 08:27:34;;;;;;;21.27;19.10;;;;;;;0.98;75.71;98854.25;10500928;28;20121;-71
2021/12/08 08:32:39;;;;;;;19.92;18.13;;;;;;;1.24;74.31;98846.16;10500075;28;20079;-72
2021/12/08 08:37:41;;;;;;;19.17;17.38;;;;;;;1.22;73.73;98842.72;10499948;28;20048;-72
2021/12/08 08:42:43;;;;;;;18.77;17.05;;;;;;;1.41;73.43;98839.88;10498295;28;20040;-72
2021/12/08 08:47:59;;;;;;;18.70;17.00;;;;;;;1.50;73.18;98843.19;10499775;28;20044;-72
2021/12/08 08:53:02;;;;;;;18.88;17.00;;;;;;;1.46;73.28;98849.31;10499551;28;20045;-71
2021/12/08 08:58:23;;;;;;;18.45;16.73;;;;;;;1.47;73.21;98842.41;10500672;28;20048;-71
2021/12/08 09:03:28;;;;;;;18.60;16.90;;;;;;;1.70;72.31;98844.66;10499670;28;20047;-71
2021/12/08 09:08:31;;;;;;;18.83;16.98;;;;;;;1.56;73.35;98841.41;10499151;28;20048;-73
2021/12/08 09:13:40;;;;;;;16.55;15.10;;;;;;;1.87;71.89;98844.41;10498542;28;20052;-72
2021/12/08 09:18:52;;;;;;;16.75;15.15;;;;;;;2.18;70.41;98847.34;10499743;28;20068;-71
2021/12/08 09:24:08;;;;;;;16.90;15.30;;;;;;;2.07;70.97;98846.66;10498587;28;20048;-72
2021/12/08 09:29:16;;;;;;;15.77;14.38;;;;;;;2.21;70.10;98842.97;10498508;28;20050;-72
2021/12/08 09:34:23;;;;;;;17.67;16.17;;;;;;;2.17;70.15;98835.25;10498006;28;20049;-70
2021/12/08 09:39:41;;;;;;;15.20;13.97;;;;;;;2.43;68.68;98820.06;10498588;28;20095;-71
2021/12/08 09:44:51;;;;;;;15.75;14.40;;;;;;;2.49;67.67;98819.13;10500684;28;20056;-72
2021/12/08 09:49:53;;;;;;;16.42;14.77;;;;;;;2.45;68.94;98814.88;10500434;28;20067;-71
2021/12/08 09:54:57;;;;;;;17.02;15.38;;;;;;;2.44;68.55;98806.25;10498780;28;20105;-72
2021/12/08 09:59:59;;;;;;;15.18;13.73;;;;;;;2.73;67.66;98810.84;10498084;28;20513;-72
2021/12/08 10:05:21;;;;;;;15.88;14.48;;;;;;;2.81;67.54;98818.50;10498326;28;20048;-72
2021/12/08 10:10:23;;;;;;;17.60;13.68;;;;;;;3.01;66.67;98821.56;10498658;28;20533;-72
2021/12/08 10:15:26;;;;;;;16.45;14.82;;;;;;;3.29;65.98;98805.38;10497719;28;20048;-73
2021/12/08 10:20:37;;;;;;;16.95;14.25;;;;;;;3.22;65.55;98804.66;10497623;28;20041;-72
2021/12/08 10:25:43;;;;;;;15.82;14.43;;;;;;;2.95;66.70;98800.91;10502597;28;20545;-71
2021/12/08 10:30:51;;;;;;;14.90;13.60;;;;;;;2.59;66.42;98793.88;10504742;28;20528;-72
2021/12/08 10:36:02;;;;;;;16.38;14.75;;;;;;;2.77;67.18;98811.66;10505129;28;20039;-71
2021/12/08 10:41:06;;;;;;;16.65;15.07;;;;;;;2.78;66.36;98819.41;10504844;28;20040;-71
2021/12/08 10:46:11;;;;;;;17.55;15.65;;;;;;;2.49;67.07;98816.53;10505214;28;20585;-71
2021/12/08 10:56:42;;;;;;;17.75;16.13;;;;;;;2.17;67.72;98798.94;10503113;28;20135;-72
2021/12/08 11:01:44;;;;;;;18.42;16.65;;;;;;;2.14;67.31;98805.06;10503245;28;20036;-70
2021/12/08 11:06:47;;;;;;;16.85;15.35;;;;;;;2.28;68.07;98812.59;10501297;28;20113;-71
2021/12/08 11:11:49;;;;;;;18.00;16.35;;;;;;;2.11;67.30;98788.69;10502598;28;20051;-71
2021/12/08 11:16:50;;;;;;;18.08;16.30;;;;;;;2.00;67.49;98789.75;10502538;28;20517;-72
2021/12/08 11:21:56;;;;;;;18.30;16.60;;;;;;;2.05;67.04;98784.47;10502231;28;20044;-72
2021/12/08 11:27:00;;;;;;;18.20;16.27;;;;;;;1.86;67.96;98783.94;10502542;28;20048;-73
2021/12/08 11:32:05;;;;;;;17.73;16.13;;;;;;;1.80;67.38;98788.34;10501391;28;20106;-70
2021/12/08 11:37:14;;;;;;;21.20;18.42;;;;;;;1.78;68.44;98801.34;10500468;28;20044;-71
2021/12/08 11:42:19;;;;;;;19.90;17.95;;;;;;;1.85;67.92;98792.56;10502325;28;20436;-71
2021/12/08 11:47:34;;;;;;;19.85;17.77;;;;;;;1.93;67.56;98779.50;10503492;28;20086;-71
2021/12/08 11:52:36;;;;;;;20.63;17.90;;;;;;;2.00;66.70;98787.16;10503219;28;20063;-71
2021/12/08 11:57:45;;;;;;;20.15;18.17;;;;;;;1.83;66.49;98778.81;10501280;28;20140;-70
2021/12/08 12:02:59;;;;;;;20.20;18.13;;;;;;;1.72;66.93;98783.28;10500831;28;20044;-72
2021/12/08 12:08:10;;;;;;;20.55;18.48;;;;;;;1.86;65.68;98775.28;10501193;28;20566;-70
2021/12/08 12:13:13;;;;;;;20.52;18.13;;;;;;;1.78;67.88;98772.84;10500090;28;20098;-72
2021/12/08 12:18:17;;;;;;;18.65;16.85;;;;;;;1.79;66.89;98779.72;10499577;28;20064;-70
2021/12/08 12:23:44;;;;;;;21.10;18.05;;;;;;;1.84;66.12;98780.50;10501108;28;20387;-70
2021/12/08 12:29:14;;;;;;;22.45;18.25;;;;;;;1.40;67.90;98797.59;10501923;28;20060;-70
2021/12/08 12:34:36;;;;;;;20.25;18.15;;;;;;;1.34;68.25;98799.44;10490321;28;20056;-70
2021/12/08 12:39:47;;;;;;;27.02;19.88;;;;;;;1.39;67.85;98806.25;10471904;28;20094;-71
2021/12/08 12:44:58;;;;;;;29.83;20.05;;;;;;;1.29;68.54;98798.66;10497855;28;20048;-72
2021/12/08 12:49:59;;;;;;;27.10;20.75;;;;;;;1.23;69.27;98799.56;10499221;28;20526;-70
2021/12/08 12:55:11;;;;;;;26.92;21.27;;;;;;;1.26;68.68;98810.75;10498996;28;20051;-71
2021/12/08 13:00:27;;;;;;;23.23;19.48;;;;;;;1.33;68.56;98813.22;10499656;28;20037;-71
2021/12/08 13:05:53;;;;;;;36.30;23.13;;;;;;;1.06;69.95;98804.97;10499233;28;20131;-71
2021/12/08 13:10:55;;;;;;;28.42;22.80;;;;;;;1.00;69.63;98805.06;10500221;28;20044;-70
2021/12/08 13:15:58;;;;;;;38.33;23.52;;;;;;;0.99;69.75;98799.03;10499367;28;20048;-71
2021/12/08 13:21:02;;;;;;;32.95;23.85;;;;;;;0.89;69.35;98797.44;10498668;28;20478;-71
2021/12/08 13:26:12;;;;;;;36.22;23.92;;;;;;;0.95;69.70;98792.19;10498092;28;20115;-71
2021/12/08 13:31:30;;;;;;;36.70;25.33;;;;;;;0.87;68.99;98786.25;10497827;28;20104;-71
2021/12/08 13:36:46;;;;;;;37.33;22.92;;;;;;;0.80;69.66;98784.63;10499825;28;20142;-71
2021/12/08 13:42:04;;;;;;;36.15;24.10;;;;;;;0.69;70.31;98774.41;10498503;28;20383;-71
2021/12/08 13:47:22;;;;;;;35.50;22.63;;;;;;;0.86;69.60;98781.09;10497340;28;20048;-71
2021/12/08 13:52:31;;;;;;;43.38;24.25;;;;;;;0.74;70.34;98782.94;10498183;28;20051;-72
2021/12/08 13:58:11;;;;;;;40.53;24.25;;;;;;;0.81;69.83;98778.56;10499013;28;20045;-72
2021/12/08 14:03:20;;;;;;;35.72;23.35;;;;;;;0.84;70.00;98778.53;10418780;28;20115;-71
2021/12/08 14:08:38;;;;;;;35.83;23.67;;;;;;;0.78;70.05;98772.56;10418570;28;20100;-71
2021/12/08 14:13:44;;;;;;;38.45;25.13;;;;;;;0.61;70.60;98773.63;10417776;28;20046;-71
2021/12/08 14:18:48;;;;;;;43.35;25.02;;;;;;;0.62;70.66;98783.13;10419410;28;20068;-72
2021/12/08 14:24:12;;;;;;;47.35;24.60;;;;;;;0.67;70.67;98785.66;10418689;28;20057;-71
2021/12/08 14:29:15;;;;;;;45.08;25.38;;;;;;;0.54;71.25;98784.09;10446933;22;20516;-68
2021/12/08 14:34:28;;;;;;;45.88;26.50;;;;;;;0.56;71.25;98772.84;10504151;28;20413;-68
2021/12/08 14:39:37;;;;;;;40.53;25.70;;;;;;;0.31;71.74;98785.19;10503829;28;20055;-68
2021/12/08 14:44:49;;;;;;;44.35;25.30;;;;;;;0.34;72.02;98782.56;10503505;28;20098;-69
2021/12/08 14:49:58;;;;;;;44.42;26.38;;;;;;;0.21;72.39;98783.56;10504198;28;20041;-68
2021/12/08 14:55:00;;;;;;;45.25;25.13;;;;;;;0.41;71.99;98775.59;10505409;28;20102;-68
2021/12/08 15:00:15;;;;;;;40.75;25.75;;;;;;;0.32;71.48;98767.97;10504642;28;20449;-68
2021/12/08 15:05:19;;;;;;;42.72;24.52;;;;;;;0.46;71.14;98768.66;10503587;28;20052;-68
2021/12/08 15:10:29;;;;;;;43.67;26.05;;;;;;;0.18;72.86;98766.38;10501527;28;20047;-68
2021/12/08 15:15:32;;;;;;;41.22;25.40;;;;;;;0.25;72.33;98767.16;10502395;28;20076;-68
2021/12/08 15:20:43;;;;;;;43.88;25.70;;;;;;;0.24;72.38;98770.63;10501675;28;20041;-68
2021/12/08 15:25:47;;;;;;;56.35;28.20;;;;;;;0.31;72.19;98780.03;10499901;28;20044;-68
2021/12/08 15:30:53;;;;;;;46.97;26.30;;;;;;;0.23;72.14;98776.66;10502025;28;20048;-68
2021/12/08 15:36:12;;;;;;;45.00;27.10;;;;;;;0.39;71.84;98773.03;10502946;28;20056;-68
2021/12/08 15:41:18;;;;;;;46.30;25.13;;;;;;;0.04;73.50;98765.63;10500969;28;20040;-69
2021/12/08 15:46:22;;;;;;;46.47;26.00;;;;;;;0.22;73.28;98762.88;10499684;28;20087;-69
2021/12/08 15:51:31;;;;;;;52.00;25.65;;;;;;;0.12;73.50;98758.66;10501317;28;20040;-69
2021/12/08 15:56:38;;;;;;;46.85;26.30;;;;;;;0.17;73.28;98751.72;10499599;28;20098;-67
2021/12/08 16:01:44;;;;;;;45.05;25.63;;;;;;;0.15;73.01;98750.91;10500828;28;20044;-69
2021/12/08 16:06:52;;;;;;;47.78;26.33;;;;;;;0.08;73.81;98753.53;10501201;28;20048;-68
2021/12/08 16:11:59;;;;;;;;;;;;;;;0.04;73.40;98754.44;10500577;28;20064;-68
2021/12/08 16:17:22;;;;;;;47.17;26.20;;;;;;;0.15;73.20;98755.22;10500475;28;20385;-69
2021/12/08 16:22:24;;;;;;;53.97;26.05;;;;;;;-0.01;74.31;98777.75;10500617;28;20113;-68
2021/12/08 16:27:28;;;;;;;44.47;26.23;;;;;;;-0.12;74.78;98771.84;10499835;28;20044;-69
2021/12/08 16:32:30;;;;;;;49.67;25.92;;;;;;;0.19;74.35;98759.47;10500808;28;20494;-69
2021/12/08 16:37:36;;;;;;;48.07;25.30;;;;;;;0.15;73.87;98766.41;10500050;28;20060;-68
2021/12/08 16:48:09;;;;;;;48.17;25.90;;;;;;;0.21;73.08;98768.91;10500979;28;20052;-69
2021/12/08 16:53:14;;;;;;;45.35;23.90;;;;;;;0.13;73.77;98760.38;10500501;28;20037;-70
2021/12/08 16:58:19;;;;;;;46.38;26.70;;;;;;;0.05;73.87;98761.34;10500359;28;20485;-68
2021/12/08 17:03:23;;;;;;;46.75;26.60;;;;;;;0.19;73.61;98782.72;10499684;28;20040;-69
2021/12/08 17:08:27;;;;;;;45.75;26.92;;;;;;;-0.08;74.63;98770.94;10500081;28;20113;-69
2021/12/08 17:13:30;;;;;;;39.22;24.52;;;;;;;-0.07;75.13;98760.59;10497381;28;20047;-69
2021/12/08 17:18:34;;;;;;;52.97;27.13;;;;;;;-0.15;75.15;98770.13;10500275;28;20048;-67
2021/12/08 17:23:37;;;;;;;44.15;26.70;;;;;;;0.40;72.88;98771.28;10483434;28;20036;-69
2021/12/08 17:28:39;;;;;;;47.65;25.30;;;;;;;0.19;73.31;98773.25;10500356;28;20106;-68
2021/12/08 17:33:43;;;;;;;54.80;26.63;;;;;;;0.16;73.94;98773.28;10503588;28;20036;-69
2021/12/08 17:38:44;;;;;;;46.03;26.58;;;;;;;0.16;73.81;98768.09;10509139;28;20060;-69
2021/12/08 17:43:46;;;;;;;57.05;25.75;;;;;;;0.54;72.11;98753.06;10507923;28;20039;-68
2021/12/08 17:49:02;;;;;;;46.55;26.10;;;;;;;0.42;72.10;98744.56;10510036;28;20052;-68
2021/12/08 17:54:06;;;;;;;49.83;27.85;;;;;;;0.32;72.13;98744.69;10507025;28;20044;-69
2021/12/08 17:59:10;;;;;;;47.25;25.13;;;;;;;0.51;71.15;98759.09;10508177;28;20059;-69
2021/12/08 18:04:12;;;;;;;41.42;24.88;;;;;;;0.33;72.21;98772.25;10507694;28;20444;-70
2021/12/08 18:09:17;;;;;;;46.15;24.98;;;;;;;0.48;71.62;98772.06;10505853;28;20220;-69
2021/12/08 18:14:19;;;;;;;46.85;25.73;;;;;;;0.81;69.91;98808.75;10505125;28;20041;-69
2021/12/08 18:19:20;;;;;;;48.05;25.65;;;;;;;0.63;70.41;98815.00;10503625;28;20378;-70
2021/12/08 18:24:22;;;;;;;48.17;25.92;;;;;;;0.39;71.82;98811.78;10504807;28;20482;-69
2021/12/08 18:29:24;;;;;;;45.92;24.35;;;;;;;0.67;70.76;98802.03;10505146;28;20139;-68
2021/12/08 18:34:53;;;;;;;43.22;24.55;;;;;;;0.29;71.65;98794.69;10504869;28;20048;-70
2021/12/08 18:39:56;;;;;;;44.00;24.95;;;;;;;0.35;71.63;98804.94;10486893;28;20049;-69
2021/12/08 18:44:58;;;;;;;40.00;23.73;;;;;;;0.74;70.08;98810.56;10503969;28;20437;-70
2021/12/08 18:50:00;;;;;;;49.53;24.15;;;;;;;0.39;70.99;98798.88;10503994;28;20127;-69
2021/12/08 18:55:03;;;;;;;36.72;23.23;;;;;;;0.62;70.29;98785.72;10504402;28;20452;-70
2021/12/08 19:00:10;;;;;;;40.65;23.60;;;;;;;0.72;70.33;98773.53;10503951;28;20056;-68
2021/12/08 19:05:16;;;;;;;40.08;24.48;;;;;;;0.70;70.35;98780.44;10504607;28;20559;-70
2021/12/08 19:10:18;;;;;;;42.15;24.27;;;;;;;0.84;70.02;98783.72;10503329;28;20044;-70
2021/12/08 19:15:21;;;;;;;33.38;23.45;;;;;;;0.78;69.70;98783.78;10503929;28;20486;-69
2021/12/08 19:20:23;;;;;;;37.55;23.00;;;;;;;0.75;70.27;98778.63;10504343;28;20071;-68
2021/12/08 19:25:27;;;;;;;46.28;24.42;;;;;;;0.82;70.30;98775.09;10502062;28;20044;-68
2021/12/08 19:30:33;;;;;;;38.10;23.60;;;;;;;0.53;71.48;98772.84;10504026;28;20044;-69
2021/12/08 19:35:37;;;;;;;34.08;23.00;;;;;;;0.48;71.82;98769.47;10502473;28;20110;-69
2021/12/08 19:40:39;;;;;;;37.47;23.05;;;;;;;0.62;70.91;98764.13;10501959;28;20037;-68
2021/12/08 19:45:41;;;;;;;34.42;22.98;;;;;;;0.91;69.83;98767.22;10463976;28;20040;-69
2021/12/08 19:50:44;;;;;;;35.85;22.92;;;;;;;0.67;70.62;98770.13;10463229;28;20041;-68
2021/12/08 19:55:47;;;;;;;36.55;22.52;;;;;;;0.57;71.11;98768.50;10461390;28;20044;-69
2021/12/08 20:00:50;;;;;;;34.60;23.48;;;;;;;0.86;69.58;98766.44;10458885;28;20079;-70
2021/12/08 20:05:53;;;;;;;38.67;23.08;;;;;;;0.60;70.71;98769.34;10462895;28;20103;-67
2021/12/08 20:10:55;;;;;;;34.38;22.60;;;;;;;0.57;70.75;98774.53;10501561;28;20082;-68
2021/12/08 20:16:00;;;;;;;38.15;23.05;;;;;;;0.58;71.22;98770.25;10503576;28;20044;-69
2021/12/08 20:21:04;;;;;;;43.97;24.58;;;;;;;0.80;70.56;98773.41;10503851;28;20455;-70
2021/12/08 20:26:08;;;;;;;38.78;24.45;;;;;;;0.87;69.86;98762.13;10501412;28;20052;-68
2021/12/08 20:31:18;;;;;;;34.80;23.52;;;;;;;0.94;69.43;98769.78;10496214;22;20128;-73
2021/12/08 20:36:21;;;;;;;36.57;22.77;;;;;;;0.55;71.20;98759.94;10420160;28;20049;-73
2021/12/08 20:41:25;;;;;;;40.33;24.20;;;;;;;0.66;71.29;98763.22;10420506;28;20073;-73
2021/12/08 20:46:27;;;;;;;40.20;23.88;;;;;;;0.85;70.01;98759.56;10412193;28;20060;-73
2021/12/08 20:51:28;;;;;;;34.08;23.42;;;;;;;0.71;70.40;98767.50;10421290;28;20034;-72
2021/12/08 20:56:34;;;;;;;33.70;22.30;;;;;;;0.73;70.28;98754.53;10421575;28;20095;-72
2021/12/08 21:01:52;;;;;;;35.28;23.02;;;;;;;0.74;70.43;98767.44;10420399;28;20095;-72
2021/12/08 21:06:55;;;;;;;36.38;22.75;;;;;;;0.68;71.18;98777.00;10420772;28;20050;-73
2021/12/08 21:11:58;;;;;;;31.13;21.60;;;;;;;0.74;71.27;98785.53;10420931;28;20064;-72
2021/12/08 21:16:59;;;;;;;30.20;21.73;;;;;;;0.68;71.05;98788.22;10418952;28;20054;-72
2021/12/08 21:22:03;;;;;;;31.27;22.30;;;;;;;0.77;70.93;98810.53;10417177;28;20052;-72
2021/12/08 21:27:05;;;;;;;33.22;22.58;;;;;;;0.71;71.36;98808.88;10417867;28;20049;-72
2021/12/08 21:32:07;;;;;;;33.30;23.30;;;;;;;1.05;70.10;98823.13;10416648;28;20076;-73
2021/12/08 21:37:08;;;;;;;27.70;21.27;;;;;;;0.60;72.10;98822.78;10419920;28;20122;-73
2021/12/08 21:42:12;;;;;;;35.63;23.42;;;;;;;0.47;73.13;98825.50;10420394;28;20459;-71
2021/12/08 21:47:14;;;;;;;32.20;21.35;;;;;;;0.57;72.78;98835.75;10419220;28;20060;-73
2021/12/08 21:52:15;;;;;;;38.70;24.20;;;;;;;0.51;72.34;98821.16;10417525;28;20054;-72
2021/12/08 21:57:17;;;;;;;32.40;22.02;;;;;;;0.85;71.56;98816.47;10418507;28;20549;-73
2021/12/08 22:02:19;;;;;;;35.33;23.50;;;;;;;0.96;71.16;98829.25;10419671;28;20046;-72
2021/12/08 22:07:20;;;;;;;32.42;22.60;;;;;;;0.69;71.66;98820.09;10418008;28;20057;-72
2021/12/08 22:12:22;;;;;;;31.88;22.95;;;;;;;0.60;72.51;98817.63;10417358;28;20046;-72
2021/12/08 22:17:24;;;;;;;32.13;22.40;;;;;;;0.80;71.99;98820.84;10419317;28;20051;-72
2021/12/08 22:22:28;;;;;;;28.13;22.08;;;;;;;1.30;69.79;98811.56;10427767;28;20111;-72
2021/12/08 22:27:30;;;;;;;27.92;22.33;;;;;;;1.09;70.95;98824.78;10427921;28;20045;-72
2021/12/08 22:32:31;;;;;;;30.48;21.17;;;;;;;1.25;69.88;98824.56;10426496;28;20050;-71
2021/12/08 22:37:35;;;;;;;32.50;21.35;;;;;;;1.11;71.23;98833.41;10427645;28;20026;-71
2021/12/08 22:42:37;;;;;;;31.48;22.13;;;;;;;1.09;70.75;98845.50;10425777;28;20048;-71
2021/12/08 22:47:44;;;;;;;34.70;22.80;;;;;;;1.00;71.63;98841.28;10425649;28;20046;-72
2021/12/08 22:52:47;;;;;;;37.42;23.33;;;;;;;0.86;73.01;98815.59;10427663;28;20128;-71
2021/12/08 22:57:51;;;;;;;30.50;21.88;;;;;;;1.14;71.17;98823.84;10425859;28;20077;-72
2021/12/08 23:02:54;;;;;;;33.50;22.02;;;;;;;0.81;72.80;98814.78;10427700;28;20374;-72
2021/12/08 23:08:01;;;;;;;36.35;23.13;;;;;;;0.92;72.38;98802.56;10423580;28;20068;-72
2021/12/08 23:13:07;;;;;;;34.25;22.23;;;;;;;0.89;72.11;98792.28;10425879;28;20046;-71
2021/12/08 23:18:09;;;;;;;31.38;21.50;;;;;;;1.04;72.04;98780.84;10425363;28;20136;-71
2021/12/08 23:23:11;;;;;;;37.08;22.90;;;;;;;0.84;72.43;98775.97;10425584;28;20049;-71
2021/12/08 23:28:13;;;;;;;41.67;23.75;;;;;;;1.06;71.35;98771.31;10422817;28;20167;-71
2021/12/08 23:33:16;;;;;;;31.60;22.40;;;;;;;1.31;70.41;98751.13;10421172;28;20466;-71
2021/12/08 23:38:23;;;;;;;32.40;23.10;;;;;;;1.25;70.41;98735.72;10422988;28;20411;-72
2021/12/08 23:43:25;;;;;;;34.22;22.58;;;;;;;1.24;70.85;98729.69;10423907;28;20115;-72
2021/12/08 23:48:26;;;;;;;30.02;22.33;;;;;;;0.95;72.19;98722.31;10423762;28;20041;-72
2021/12/08 23:53:28;;;;;;;29.65;22.25;;;;;;;1.15;70.78;98716.88;10422958;28;20461;-72
2021/12/08 23:58:43;;;;;;;32.00;22.02;;;;;;;1.13;70.81;98716.03;10422762;28;20118;-72
